📊 Raw Sensor Data
Showing records 38851 to 38875 of 84,936 total
| ID | Distance (ft) | Battery V | Battery A | Int Temp (°F) | Int Humid (%) | Ext Temp (°F) | Solar V | RSSI | SNR | Time Stamp |
|---|---|---|---|---|---|---|---|---|---|---|
| 46098 | 15.7 | 4.01 | 5 | 102 | 43 | 93 | 5.10 | -72 | 8 | 07/12/2025 02:45 PM |
| 46097 | 15.3 | 4.00 | 0 | 101 | 43 | 95 | 5.10 | -72 | 7 | 07/12/2025 02:30 PM |
| 46096 | 15.4 | 4.00 | 0 | 99 | 43 | 92 | 5.10 | -72 | 8 | 07/12/2025 02:15 PM |
| 46095 | 15.4 | 4.00 | 0 | 100 | 42 | 94 | 5.10 | -74 | 7 | 07/12/2025 02:00 PM |
| 46094 | 15.4 | 4.02 | 5 | 98 | 42 | 92 | 5.10 | -72 | 8 | 07/12/2025 01:45 PM |
| 46093 | 15.5 | 4.13 | 5 | 96 | 43 | 90 | 5.10 | -73 | 8 | 07/12/2025 01:30 PM |
| 46092 | 15.5 | 4.00 | 0 | 95 | 43 | 88 | 5.10 | -73 | 8 | 07/12/2025 01:15 PM |
| 46091 | 15.5 | 4.00 | 5 | 93 | 43 | 88 | 5.10 | -72 | 8 | 07/12/2025 01:00 PM |
| 46090 | 15.5 | 4.00 | 5 | 92 | 43 | 87 | 5.10 | -71 | 7 | 07/12/2025 12:45 PM |
| 46089 | 15.6 | 4.00 | 5 | 91 | 43 | 88 | 5.10 | -72 | 7 | 07/12/2025 12:30 PM |
| 46088 | 15.5 | 4.01 | 5 | 89 | 43 | 85 | 5.10 | -71 | 8 | 07/12/2025 12:15 PM |
| 46087 | 15.4 | 4.00 | 0 | 87 | 43 | 86 | 5.10 | -70 | 7 | 07/12/2025 12:00 PM |
| 46086 | 15.5 | 4.00 | 5 | 86 | 43 | 87 | 5.10 | -73 | 8 | 07/12/2025 11:45 AM |
| 46085 | 15.4 | 4.00 | 0 | 84 | 44 | 81 | 5.10 | -70 | 7 | 07/12/2025 11:30 AM |
| 46084 | 15.5 | 4.02 | 0 | 83 | 44 | 82 | 5.10 | -72 | 8 | 07/12/2025 11:15 AM |
| 46083 | 15.5 | 4.05 | 5 | 83 | 43 | 84 | 5.10 | -74 | 7 | 07/12/2025 11:00 AM |
| 46082 | 15.5 | 4.01 | 5 | 82 | 43 | 84 | 5.10 | -73 | 8 | 07/12/2025 10:45 AM |
| 46081 | 15.5 | 4.00 | 5 | 81 | 43 | 79 | 5.10 | -72 | 8 | 07/12/2025 10:30 AM |
| 46080 | 15.5 | 4.10 | 5 | 80 | 43 | 80 | 5.10 | -72 | 7 | 07/12/2025 10:15 AM |
| 46079 | 15.5 | 4.00 | 5 | 80 | 43 | 79 | 5.10 | -72 | 7 | 07/12/2025 10:00 AM |
| 46078 | 15.5 | 4.03 | 5 | 79 | 43 | 80 | 5.10 | -71 | 7 | 07/12/2025 09:45 AM |
| 46077 | 15.5 | 4.01 | 5 | 77 | 44 | 77 | 5.10 | -70 | 7 | 07/12/2025 09:30 AM |
| 46076 | 15.5 | 4.00 | 0 | 76 | 44 | 77 | 5.10 | -73 | 7 | 07/12/2025 09:15 AM |
| 46075 | 15.5 | 4.00 | 5 | 75 | 44 | 75 | 5.10 | -73 | 8 | 07/12/2025 09:00 AM |
| 46074 | 15.5 | 4.00 | 0 | 74 | 44 | 77 | 5.10 | -72 | 7 | 07/12/2025 08:45 AM |